Time;durP1;ratioP1;P1;durP2;ratioP2;P2;SDS_P1;SDS_P2;PMS_P1;PMS_P2;Temp;Humidity;BMP_temperature;BMP_pressure;BME280_temperature;BME280_humidity;BME280_pressure;Samples;Min_cycle;Max_cycle;Signal;HPM_P1;HPM_P2
2021/01/14 00:00:30;;;;;;;11.57;7.65;;;;;;;0.75;74.07;94447.06;5053882;28;20209;-79
2021/01/14 00:02:57;;;;;;;16.15;8.15;;;;;;;0.72;74.29;94452.38;5054502;28;20289;-79
2021/01/14 00:05:24;;;;;;;16.15;7.82;;;;;;;0.67;74.57;94445.81;5054220;28;20203;-78
2021/01/14 00:07:53;;;;;;;9.52;7.72;;;;;;;0.68;74.56;94443.16;5054165;28;20209;-79
2021/01/14 00:10:20;;;;;;;12.23;7.25;;;;;;;0.70;74.48;94445.66;5054282;28;20253;-78
2021/01/14 00:12:47;;;;;;;14.32;8.32;;;;;;;0.77;74.01;94452.13;5053824;28;20194;-79
2021/01/14 00:15:16;;;;;;;12.85;8.38;;;;;;;0.81;73.89;94454.47;5054129;28;20206;-79
2021/01/14 00:17:43;;;;;;;17.60;8.32;;;;;;;0.71;72.92;94455.88;5053992;28;20206;-79
2021/01/14 00:20:11;;;;;;;8.10;6.90;;;;;;;0.76;72.50;94446.13;5053979;28;20206;-79
2021/01/14 00:22:39;;;;;;;13.40;7.15;;;;;;;0.76;72.85;94456.47;5035103;28;20230;-78
2021/01/14 00:25:07;;;;;;;14.70;8.20;;;;;;;0.76;72.99;94453.06;5054034;28;20199;-79
2021/01/14 00:27:33;;;;;;;9.32;6.65;;;;;;;0.71;72.92;94452.47;5053611;28;20207;-78
2021/01/14 00:30:00;;;;;;;7.45;6.70;;;;;;;0.74;73.02;94453.13;5053915;28;20288;-78
2021/01/14 00:32:27;;;;;;;10.80;7.00;;;;;;;0.80;73.09;94452.81;5053680;28;20201;-78
2021/01/14 00:34:53;;;;;;;9.77;7.45;;;;;;;0.78;73.06;94448.63;5053662;28;20290;-78
2021/01/14 00:40:05;;;;;;;13.25;8.63;;;;;;;0.88;73.05;94445.50;4972670;28;20197;-79
2021/01/14 00:42:32;;;;;;;9.45;6.85;;;;;;;0.87;72.87;94443.81;4972642;28;20197;-79
2021/01/14 00:45:00;;;;;;;11.13;7.47;;;;;;;0.85;73.08;94435.31;4972587;28;20216;-79
2021/01/14 00:47:27;;;;;;;11.50;6.65;;;;;;;0.80;72.41;94451.97;4941377;28;20209;-78
2021/01/14 00:49:53;;;;;;;19.45;7.38;;;;;;;0.69;72.55;94444.81;4972462;28;20204;-79
2021/01/14 00:52:20;;;;;;;12.07;7.35;;;;;;;0.67;72.87;94450.97;4956190;28;20383;-79
2021/01/14 00:54:46;;;;;;;12.70;8.30;;;;;;;0.74;72.89;94447.97;4972391;28;20200;-78
2021/01/14 00:57:13;;;;;;;13.55;8.85;;;;;;;0.72;73.42;94438.66;4972538;28;20292;-79
2021/01/14 00:59:40;;;;;;;13.23;9.13;;;;;;;0.66;73.14;94444.97;4956052;28;20222;-79
2021/01/14 01:02:06;;;;;;;10.70;7.75;;;;;;;0.62;72.97;94440.91;4972484;28;20267;-78
2021/01/14 01:04:33;;;;;;;7.95;5.32;;;;;;;0.56;73.11;94442.03;4955901;28;20831;-78
2021/01/14 01:06:59;;;;;;;12.45;7.07;;;;;;;0.47;72.64;94450.28;4972365;28;20258;-79
2021/01/14 01:09:26;;;;;;;18.48;7.68;;;;;;;0.48;72.80;94446.78;4972326;28;20558;-79
2021/01/14 01:11:52;;;;;;;8.80;5.35;;;;;;;0.43;72.88;94447.94;4971363;28;20212;-78
2021/01/14 01:14:19;;;;;;;9.55;6.82;;;;;;;0.35;72.80;94447.53;4972236;28;20201;-79
2021/01/14 01:16:46;;;;;;;17.10;7.22;;;;;;;0.34;73.19;94438.94;4998446;28;20203;-80
2021/01/14 01:19:12;;;;;;;10.75;6.63;;;;;;;0.39;73.37;94439.53;5052831;28;20226;-79
2021/01/14 01:21:42;;;;;;;9.10;6.28;;;;;;;0.46;73.16;94443.44;5052873;28;20239;-79
2021/01/14 01:24:09;;;;;;;11.75;7.80;;;;;;;0.49;72.46;94435.53;5053258;28;20207;-79
2021/01/14 01:26:36;;;;;;;7.18;6.43;;;;;;;0.53;72.41;94438.78;5034494;28;20203;-79
2021/01/14 01:29:02;;;;;;;8.02;5.43;;;;;;;0.49;72.06;94439.88;5053017;28;20209;-79
2021/01/14 01:31:29;;;;;;;8.15;6.32;;;;;;;0.49;72.37;94430.38;5052797;28;20205;-79
2021/01/14 01:33:56;;;;;;;10.07;5.60;;;;;;;0.56;71.77;94429.13;5052685;28;20656;-79
2021/01/14 01:36:22;;;;;;;9.27;5.40;;;;;;;0.57;71.65;94428.22;5052919;28;20207;-79
2021/01/14 01:38:49;;;;;;;9.68;5.68;;;;;;;0.69;71.75;94428.50;5052901;28;20223;-79
2021/01/14 01:41:15;;;;;;;6.70;5.97;;;;;;;0.70;71.00;94417.25;5052764;28;20204;-79
2021/01/14 01:43:42;;;;;;;8.60;5.70;;;;;;;0.75;70.80;94428.16;5052642;28;20667;-78
2021/01/14 01:46:08;;;;;;;8.25;5.85;;;;;;;0.80;70.97;94415.81;5052725;28;20204;-79
2021/01/14 01:48:35;;;;;;;11.30;7.40;;;;;;;0.77;70.59;94421.16;5052903;28;20217;-79
2021/01/14 01:51:02;;;;;;;9.88;5.80;;;;;;;0.75;70.51;94422.97;5052966;28;20201;-79
2021/01/14 01:53:30;;;;;;;7.70;5.82;;;;;;;0.72;70.61;94418.81;5052547;28;20207;-79
2021/01/14 01:55:58;;;;;;;8.32;5.88;;;;;;;0.71;71.14;94417.16;5052791;28;20209;-79
2021/01/14 01:58:32;;;;;;;9.48;6.60;;;;;;;0.77;71.01;94421.16;5052439;28;20691;-79
2021/01/14 02:00:59;;;;;;;11.02;6.45;;;;;;;0.73;71.25;94419.66;5052584;28;20198;-79
2021/01/14 02:03:25;;;;;;;12.30;5.85;;;;;;;0.70;71.12;94412.91;5052795;28;20203;-78
2021/01/14 02:05:52;;;;;;;8.40;5.40;;;;;;;0.64;71.33;94409.84;5052567;28;20202;-79
2021/01/14 02:08:23;;;;;;;16.60;7.78;;;;;;;0.63;71.53;94413.34;5052439;28;20219;-79
2021/01/14 02:10:55;;;;;;;8.20;6.00;;;;;;;0.65;71.38;94403.75;4985087;28;20199;-79
2021/01/14 02:13:28;;;;;;;9.15;6.80;;;;;;;0.68;71.57;94406.16;5052494;28;20526;-79
2021/01/14 02:15:58;;;;;;;10.65;7.03;;;;;;;0.69;71.07;94403.50;5052487;28;20210;-79
2021/01/14 02:18:25;;;;;;;11.27;6.35;;;;;;;0.79;71.30;94409.81;5052370;28;20639;-79
2021/01/14 02:20:57;;;;;;;11.70;6.68;;;;;;;0.74;71.23;94413.56;5052312;28;20214;-79
2021/01/14 02:23:29;;;;;;;9.73;6.25;;;;;;;0.71;70.92;94401.66;5053676;28;20234;-79
2021/01/14 02:26:05;;;;;;;8.85;5.60;;;;;;;0.72;70.98;94400.75;5056012;28;20207;-79
2021/01/14 02:28:33;;;;;;;10.70;5.75;;;;;;;0.66;71.42;94393.34;5056549;28;20212;-79
2021/01/14 02:31:01;;;;;;;9.88;5.85;;;;;;;0.64;71.15;94399.50;5055881;28;20665;-79
2021/01/14 02:33:28;;;;;;;11.98;6.80;;;;;;;0.61;71.75;94398.75;5056098;28;20199;-79
2021/01/14 02:35:54;;;;;;;8.95;5.20;;;;;;;0.55;71.22;94400.81;5055943;28;20225;-79
2021/01/14 02:38:21;;;;;;;11.88;6.05;;;;;;;0.62;71.82;94404.75;5020835;28;20231;-79
2021/01/14 02:40:47;;;;;;;7.70;5.85;;;;;;;0.65;71.64;94402.00;5055651;28;20213;-79
2021/01/14 02:43:14;;;;;;;13.73;6.93;;;;;;;0.69;71.22;94394.91;5056115;28;20218;-79
2021/01/14 02:45:41;;;;;;;10.23;5.85;;;;;;;0.75;71.46;94392.00;5055783;28;20256;-79
2021/01/14 02:48:10;;;;;;;11.73;6.28;;;;;;;0.73;71.27;94399.00;5055622;28;20261;-79
2021/01/14 02:50:39;;;;;;;8.13;6.38;;;;;;;0.75;71.19;94397.16;5055200;28;20201;-79
2021/01/14 02:53:07;;;;;;;12.05;6.00;;;;;;;0.76;70.92;94389.34;5055205;28;20257;-79
2021/01/14 02:55:34;;;;;;;9.73;6.28;;;;;;;0.78;71.09;94397.81;5055364;28;20205;-79
2021/01/14 02:58:01;;;;;;;10.57;7.93;;;;;;;0.80;71.04;94396.00;5055179;28;20289;-79
2021/01/14 03:00:28;;;;;;;23.48;12.23;;;;;;;0.81;70.84;94407.16;5036676;28;20442;-79
2021/01/14 03:02:54;;;;;;;26.25;11.38;;;;;;;0.82;70.69;94408.81;5055038;28;20195;-80
2021/01/14 03:05:21;;;;;;;14.70;9.30;;;;;;;0.73;70.80;94411.91;5036443;28;20199;-79
2021/01/14 03:07:47;;;;;;;11.15;7.05;;;;;;;0.70;70.85;94402.59;5055202;28;20225;-79
2021/01/14 03:10:14;;;;;;;13.18;9.10;;;;;;;0.64;70.83;94404.66;5036224;28;20295;-79
2021/01/14 03:12:40;;;;;;;12.40;7.65;;;;;;;0.65;71.17;94401.19;5055050;28;20210;-79
2021/01/14 03:15:08;;;;;;;12.20;7.60;;;;;;;0.66;71.34;94395.09;5055112;28;20210;-79
2021/01/14 03:17:36;;;;;;;7.55;6.63;;;;;;;0.63;71.12;94392.69;5036599;28;20211;-79
2021/01/14 03:20:05;;;;;;;4.88;4.43;;;;;;;0.63;71.18;94392.69;5055274;28;20313;-79
2021/01/14 03:22:32;;;;;;;10.85;6.28;;;;;;;0.59;71.42;94387.69;5019263;28;20233;-79
2021/01/14 03:24:58;;;;;;;8.02;5.70;;;;;;;0.54;71.43;94387.06;5055089;28;20243;-78
2021/01/14 03:27:25;;;;;;;11.07;7.15;;;;;;;0.50;71.69;94385.59;5055152;28;20264;-79
2021/01/14 03:29:51;;;;;;;11.27;6.50;;;;;;;0.54;71.54;94388.81;5055287;28;20208;-78
2021/01/14 03:32:17;;;;;;;11.90;5.30;;;;;;;0.42;71.59;94384.34;5055025;28;20570;-79
2021/01/14 03:34:45;;;;;;;10.27;5.53;;;;;;;0.45;72.17;94374.69;5054287;28;20255;-79
2021/01/14 03:37:11;;;;;;;18.02;7.93;;;;;;;0.47;72.58;94372.84;5054871;28;20196;-79
2021/01/14 03:39:37;;;;;;;25.15;8.10;;;;;;;0.52;72.09;94368.25;5054815;28;20241;-79
2021/01/14 03:42:04;;;;;;;14.73;8.20;;;;;;;0.51;72.16;94376.91;5054835;28;20254;-79
2021/01/14 03:44:30;;;;;;;10.80;6.88;;;;;;;0.48;71.64;94377.09;5054676;28;20203;-80
2021/01/14 03:46:57;;;;;;;12.00;6.93;;;;;;;0.40;71.94;94371.53;5054785;28;20215;-79
2021/01/14 03:49:23;;;;;;;9.98;6.65;;;;;;;0.42;72.35;94368.84;5054801;28;20217;-79
2021/01/14 03:51:50;;;;;;;9.82;6.90;;;;;;;0.49;72.77;94359.84;5054716;28;20259;-78
2021/01/14 03:54:21;;;;;;;10.52;6.72;;;;;;;0.54;71.71;94352.69;5054733;28;20217;-79
2021/01/14 03:56:48;;;;;;;11.98;7.53;;;;;;;0.63;71.52;94348.78;5054363;28;20236;-79
2021/01/14 03:59:14;;;;;;;12.57;7.43;;;;;;;0.63;70.99;94347.03;5054374;28;20233;-79
2021/01/14 04:01:40;;;;;;;9.30;6.20;;;;;;;0.69;70.70;94345.88;5054273;28;20205;-79
2021/01/14 04:04:07;;;;;;;16.48;9.00;;;;;;;0.66;70.72;94351.22;5035821;28;20210;-79
2021/01/14 04:06:35;;;;;;;14.80;7.78;;;;;;;0.60;70.37;94345.47;5054297;28;20662;-78
2021/01/14 04:09:03;;;;;;;10.95;6.28;;;;;;;0.61;70.18;94341.97;5035857;28;20199;-79
2021/01/14 04:11:30;;;;;;;13.57;6.93;;;;;;;0.57;69.83;94337.88;5054399;28;20211;-79
2021/01/14 04:13:56;;;;;;;13.35;7.05;;;;;;;0.53;70.22;94340.69;5054236;28;20277;-79
2021/01/14 04:16:23;;;;;;;22.45;8.90;;;;;;;0.51;70.01;94340.78;5053976;28;20207;-78
2021/01/14 04:18:49;;;;;;;11.45;6.25;;;;;;;0.54;70.19;94343.19;5054322;28;20630;-79
2021/01/14 04:21:16;;;;;;;10.43;5.53;;;;;;;0.65;70.27;94340.03;5054045;28;20652;-78
2021/01/14 04:23:44;;;;;;;10.13;7.15;;;;;;;0.72;69.67;94338.78;5053892;28;20203;-79
2021/01/14 04:26:11;;;;;;;16.45;8.55;;;;;;;0.82;69.75;94339.94;5054339;28;20548;-79
2021/01/14 04:28:38;;;;;;;10.82;8.32;;;;;;;0.93;69.54;94341.94;5053669;28;20208;-79
2021/01/14 04:31:05;;;;;;;8.65;6.10;;;;;;;0.99;69.41;94339.00;5054115;28;20206;-79
2021/01/14 04:33:31;;;;;;;9.32;7.70;;;;;;;0.99;70.44;94335.56;5053640;28;20206;-79
2021/01/14 04:35:59;;;;;;;11.85;5.85;;;;;;;0.98;70.37;94323.59;5035238;28;20210;-79
2021/01/14 04:38:27;;;;;;;14.50;7.15;;;;;;;0.98;70.09;94337.31;5053546;28;20234;-79
2021/01/14 04:40:57;;;;;;;9.20;6.60;;;;;;;0.95;70.03;94329.75;5053560;28;20211;-78
2021/01/14 04:43:26;;;;;;;9.82;6.72;;;;;;;0.93;69.95;94321.25;5053315;28;20681;-79
2021/01/14 04:45:55;;;;;;;8.00;6.35;;;;;;;0.93;69.63;94316.94;5053558;28;20658;-79
2021/01/14 04:48:23;;;;;;;12.40;6.43;;;;;;;0.90;69.31;94324.84;5053680;28;20227;-78
2021/01/14 04:50:50;;;;;;;9.15;5.45;;;;;;;0.85;69.07;94318.25;5053954;28;20944;-78
2021/01/14 04:53:21;;;;;;;8.55;6.45;;;;;;;0.77;68.83;94317.88;5053509;28;20211;-79
2021/01/14 04:55:48;;;;;;;9.75;6.60;;;;;;;0.71;68.42;94315.63;5053191;28;20199;-79
2021/01/14 04:58:17;;;;;;;9.45;6.30;;;;;;;0.67;68.46;94319.31;5053659;28;20226;-79
2021/01/14 05:00:49;;;;;;;7.53;6.40;;;;;;;0.61;68.29;94312.75;5053064;28;20202;-79
2021/01/14 05:03:22;;;;;;;11.57;7.55;;;;;;;0.59;68.08;94314.56;5053327;28;20209;-79
2021/01/14 05:05:49;;;;;;;9.20;5.05;;;;;;;0.55;68.16;94313.88;5053205;28;20605;-79
2021/01/14 05:08:17;;;;;;;8.30;5.72;;;;;;;0.51;67.73;94312.41;5053415;28;20293;-79
2021/01/14 05:10:44;;;;;;;10.25;5.80;;;;;;;0.49;67.85;94316.81;5053235;28;20217;-79
2021/01/14 05:13:11;;;;;;;8.00;5.68;;;;;;;0.36;67.61;94313.25;5034345;28;20206;-79
2021/01/14 05:15:39;;;;;;;5.30;4.80;;;;;;;0.37;67.07;94317.50;5052855;28;20215;-79
2021/01/14 05:18:07;;;;;;;4.90;4.20;;;;;;;0.27;67.17;94306.00;5052890;28;20652;-78
2021/01/14 05:20:33;;;;;;;5.85;4.75;;;;;;;0.29;67.39;94299.03;5052912;28;20204;-79
2021/01/14 05:23:01;;;;;;;16.88;8.10;;;;;;;0.32;67.31;94304.03;5053215;28;20580;-79
2021/01/14 05:25:28;;;;;;;13.07;7.20;;;;;;;0.30;67.00;94293.78;5052831;28;20194;-78
2021/01/14 05:27:55;;;;;;;11.43;7.03;;;;;;;0.29;66.98;94292.13;5017864;28;20187;-79
2021/01/14 05:30:22;;;;;;;17.98;8.27;;;;;;;0.26;66.94;94301.75;5052966;28;20202;-78
2021/01/14 05:32:49;;;;;;;11.68;7.40;;;;;;;0.19;66.77;94300.44;5052876;28;20203;-79
2021/01/14 05:35:27;;;;;;;12.13;7.38;;;;;;;0.08;66.71;94288.13;5052696;28;20667;-79
2021/01/14 05:38:00;;;;;;;6.47;5.20;;;;;;;-0.15;66.80;94298.81;5052645;28;20596;-79
2021/01/14 05:40:28;;;;;;;11.10;5.63;;;;;;;-0.21;66.64;94281.94;5017790;28;20272;-79
2021/01/14 05:43:05;;;;;;;12.65;6.25;;;;;;;-0.25;67.08;94277.84;5052706;28;20706;-79
2021/01/14 05:45:32;;;;;;;10.65;6.22;;;;;;;-0.26;67.49;94283.09;5052827;28;20654;-78
2021/01/14 05:48:09;;;;;;;13.90;6.78;;;;;;;-0.25;67.50;94283.00;5052702;28;20223;-79
2021/01/14 05:50:46;;;;;;;14.52;8.00;;;;;;;-0.33;67.48;94282.56;5052907;28;20256;-78
2021/01/14 05:53:16;;;;;;;28.05;8.45;;;;;;;-0.22;67.39;94282.03;5052885;28;20551;-79
2021/01/14 05:55:44;;;;;;;12.52;8.35;;;;;;;-0.24;67.33;94287.25;5052582;28;20211;-78
2021/01/14 05:58:17;;;;;;;14.23;9.68;;;;;;;-0.20;67.11;94282.78;5053810;28;20597;-79
2021/01/14 06:00:44;;;;;;;23.15;10.52;;;;;;;-0.20;67.20;94287.94;5056847;28;20252;-79
2021/01/14 06:03:24;;;;;;;21.48;11.88;;;;;;;-0.20;67.11;94283.59;5056652;28;20646;-79
2021/01/14 06:05:51;;;;;;;10.93;8.15;;;;;;;-0.19;66.77;94285.25;5056776;28;20234;-79
2021/01/14 06:08:25;;;;;;;29.38;13.63;;;;;;;-0.38;67.19;94289.72;5056662;28;20206;-79
2021/01/14 06:10:52;;;;;;;16.05;9.00;;;;;;;-0.22;67.14;94289.75;5056283;28;20202;-78
2021/01/14 06:13:18;;;;;;;23.58;13.40;;;;;;;-0.33;68.52;94293.69;5056504;28;20211;-78
2021/01/14 06:15:58;;;;;;;35.10;18.80;;;;;;;-0.30;68.87;94295.28;5056108;28;20200;-79
2021/01/14 06:18:24;;;;;;;23.20;13.18;;;;;;;-0.42;69.37;94298.50;5056233;28;20222;-78
2021/01/14 06:20:53;;;;;;;20.13;10.25;;;;;;;-0.56;69.18;94300.97;5037678;28;20218;-79
2021/01/14 06:23:22;;;;;;;10.10;5.85;;;;;;;-0.63;68.74;94311.56;5056136;28;20231;-79
2021/01/14 06:25:50;;;;;;;8.25;5.93;;;;;;;-0.62;68.58;94313.25;5056389;28;20536;-78
2021/01/14 06:28:18;;;;;;;9.27;4.75;;;;;;;-0.64;68.66;94317.66;5056010;28;20202;-79
2021/01/14 06:31:07;;;;;;;30.38;15.15;;;;;;;-0.61;70.25;94319.22;5056229;28;20260;-80
2021/01/14 06:33:35;;;;;;;29.13;16.63;;;;;;;-0.45;71.56;94311.56;5014219;28;20205;-79
2021/01/14 06:36:06;;;;;;;32.25;15.90;;;;;;;-0.26;73.83;94309.72;5014088;28;20235;-80
2021/01/14 06:38:44;;;;;;;32.10;16.15;;;;;;;-0.09;74.51;94314.78;5014120;28;20704;-79
2021/01/14 06:41:15;;;;;;;36.85;16.83;;;;;;;-0.03;76.02;94306.72;4981614;28;20200;-80
2021/01/14 06:43:43;;;;;;;34.00;18.30;;;;;;;0.05;75.75;94306.34;5013997;28;20209;-79
2021/01/14 06:46:15;;;;;;;36.45;18.80;;;;;;;0.05;76.42;94313.25;5014068;28;20200;-80
2021/01/14 06:48:54;;;;;;;29.30;18.02;;;;;;;-0.01;77.02;94304.06;5013966;28;20243;-79
2021/01/14 06:51:29;;;;;;;30.58;17.25;;;;;;;0.07;77.42;94301.09;5013551;28;20196;-80
2021/01/14 06:54:02;;;;;;;28.70;16.15;;;;;;;-0.16;78.51;94287.69;5013941;28;20213;-80
2021/01/14 06:56:39;;;;;;;27.67;17.73;;;;;;;-0.02;78.52;94292.09;5013665;28;20210;-79
2021/01/14 06:59:08;;;;;;;27.80;16.40;;;;;;;0.12;78.76;94299.09;5013744;28;20298;-79
2021/01/14 07:01:45;;;;;;;32.72;17.77;;;;;;;0.26;78.12;94301.75;5013957;28;20541;-79
2021/01/14 07:04:31;;;;;;;31.98;18.50;;;;;;;0.33;77.56;94287.63;5013682;28;20236;-80
2021/01/14 07:07:17;;;;;;;37.75;22.10;;;;;;;0.33;77.58;94287.63;4998722;28;20207;-80
2021/01/14 07:09:51;;;;;;;36.85;19.45;;;;;;;0.30;77.76;94298.13;5020998;28;20244;-80
2021/01/14 07:12:20;;;;;;;30.50;16.77;;;;;;;0.39;77.72;94307.09;5055720;28;20731;-80
2021/01/14 07:14:47;;;;;;;42.17;16.98;;;;;;;0.48;77.02;94307.41;5055535;28;20203;-80
2021/01/14 07:17:24;;;;;;;27.83;15.02;;;;;;;0.37;76.89;94309.75;5055475;28;20249;-81
2021/01/14 07:19:50;;;;;;;22.52;14.23;;;;;;;0.44;76.21;94310.25;5055312;28;20241;-79
2021/01/14 07:22:18;;;;;;;26.83;15.25;;;;;;;0.46;76.15;94306.66;5055044;28;20317;-80
2021/01/14 07:24:46;;;;;;;39.15;18.80;;;;;;;0.52;76.58;94314.06;5055340;28;20661;-80
2021/01/14 07:27:12;;;;;;;30.50;16.73;;;;;;;0.52;76.38;94313.22;5055103;28;20651;-80
2021/01/14 07:29:44;;;;;;;19.73;12.95;;;;;;;0.27;77.73;94303.41;5055225;28;20201;-80
2021/01/14 07:32:11;;;;;;;28.90;18.30;;;;;;;0.30;76.68;94296.38;5036297;28;20678;-80
2021/01/14 07:34:40;;;;;;;21.77;14.57;;;;;;;0.31;75.93;94294.63;5055079;28;20214;-79
2021/01/14 07:37:08;;;;;;;21.10;12.60;;;;;;;0.22;74.96;94295.09;5055056;28;20256;-80
2021/01/14 07:39:55;;;;;;;23.13;14.38;;;;;;;0.34;75.43;94294.44;5055309;28;20237;-79
2021/01/14 07:42:26;;;;;;;25.55;14.13;;;;;;;0.03;76.23;94284.13;5054874;28;20234;-79
2021/01/14 07:44:54;;;;;;;28.77;15.43;;;;;;;0.26;75.10;94276.78;5036173;28;20195;-79
2021/01/14 07:47:29;;;;;;;23.85;14.35;;;;;;;0.41;75.90;94282.03;5054604;28;20814;-79
2021/01/14 07:49:56;;;;;;;19.30;11.07;;;;;;;0.39;74.09;94282.13;5054786;28;20554;-79
2021/01/14 07:52:31;;;;;;;16.00;10.02;;;;;;;0.40;73.03;94273.47;5054713;28;20250;-78
2021/01/14 07:55:00;;;;;;;21.75;12.90;;;;;;;0.40;73.21;94263.13;5054898;28;20194;-79
2021/01/14 07:57:28;;;;;;;24.20;12.20;;;;;;;0.39;72.56;94261.47;5054652;28;20212;-79
2021/01/14 07:59:58;;;;;;;21.98;11.07;;;;;;;0.46;73.67;94262.78;5036028;28;20234;-79
2021/01/14 08:02:24;;;;;;;25.17;10.68;;;;;;;0.05;74.29;94246.19;5054532;28;20654;-80
2021/01/14 08:04:53;;;;;;;19.60;11.90;;;;;;;-0.06;75.70;94250.16;5054517;28;20245;-80
2021/01/14 08:07:24;;;;;;;19.10;12.27;;;;;;;0.02;75.46;94247.19;5054419;28;20651;-81
2021/01/14 08:09:52;;;;;;;20.88;11.60;;;;;;;0.16;75.42;94241.25;5054559;28;20199;-80
2021/01/14 08:12:20;;;;;;;20.75;11.82;;;;;;;0.26;74.66;94252.72;5054270;28;20669;-80
2021/01/14 08:14:47;;;;;;;25.08;16.77;;;;;;;0.42;75.08;94250.97;5054349;28;20213;-80
2021/01/14 08:17:22;;;;;;;33.75;17.77;;;;;;;0.36;73.43;94260.81;5054376;28;20206;-80
2021/01/14 08:19:49;;;;;;;35.33;17.10;;;;;;;0.44;74.58;94253.47;5035465;28;20583;-80
2021/01/14 08:22:16;;;;;;;26.52;13.80;;;;;;;0.60;74.29;94260.28;5053982;28;20685;-81
2021/01/14 08:24:53;;;;;;;27.30;14.32;;;;;;;0.39;73.45;94255.47;5054458;28;20208;-79
2021/01/14 08:27:26;;;;;;;47.05;21.42;;;;;;;0.46;73.85;94242.13;5054222;28;20204;-80
2021/01/14 08:30:01;;;;;;;36.50;16.95;;;;;;;0.48;74.74;94226.56;5054085;28;20211;-80
2021/01/14 08:32:39;;;;;;;16.52;10.90;;;;;;;0.57;73.70;94213.13;5054050;28;20215;-80
2021/01/14 08:35:17;;;;;;;9.77;6.63;;;;;;;0.21;72.97;94221.19;5053890;28;20253;-80
2021/01/14 08:37:46;;;;;;;13.02;8.50;;;;;;;0.42;74.74;94209.69;5071058;28;20204;-80
2021/01/14 08:40:15;;;;;;;14.70;8.55;;;;;;;0.58;73.72;94207.91;5038426;28;20222;-80
2021/01/14 08:42:43;;;;;;;18.52;10.15;;;;;;;0.57;74.38;94189.91;5073987;28;20568;-80
2021/01/14 08:45:14;;;;;;;22.25;13.65;;;;;;;0.64;74.84;94187.81;5073548;28;20206;-80
2021/01/14 08:48:04;;;;;;;13.70;9.40;;;;;;;0.67;70.74;94170.41;5065968;28;20204;-80
2021/01/14 08:50:42;;;;;;;13.30;9.18;;;;;;;0.69;71.45;94160.00;5059205;28;20195;-80
2021/01/14 08:53:10;;;;;;;19.60;11.30;;;;;;;0.77;71.94;94157.78;5053261;28;20215;-80
2021/01/14 08:55:36;;;;;;;20.73;9.57;;;;;;;0.75;69.65;94150.13;5053678;28;20216;-80
2021/01/14 08:58:07;;;;;;;13.30;9.02;;;;;;;0.69;70.23;94129.00;5053309;28;20208;-80
2021/01/14 09:00:34;;;;;;;20.02;12.75;;;;;;;0.79;72.63;94132.69;5053672;28;20415;-80
2021/01/14 09:03:01;;;;;;;17.85;9.63;;;;;;;0.82;72.49;94142.84;5053205;28;20676;-80
2021/01/14 09:05:28;;;;;;;18.95;10.00;;;;;;;0.87;68.96;94149.41;5053453;28;20211;-79
2021/01/14 09:08:09;;;;;;;22.20;7.97;;;;;;;0.89;67.75;94136.41;5052977;28;20552;-79
2021/01/14 09:10:40;;;;;;;14.23;8.63;;;;;;;0.76;68.50;94118.22;5053305;28;20211;-80
2021/01/14 09:13:08;;;;;;;10.32;7.78;;;;;;;0.92;68.86;94092.31;5053700;28;20544;-80
2021/01/14 09:15:35;;;;;;;21.67;8.73;;;;;;;0.96;66.24;94095.56;5053229;28;20667;-80
2021/01/14 09:18:01;;;;;;;11.30;8.10;;;;;;;1.11;65.82;94089.44;5053380;28;20199;-80
2021/01/14 09:20:29;;;;;;;21.35;10.43;;;;;;;1.31;66.15;94091.63;5067421;28;20234;-80
2021/01/14 09:22:58;;;;;;;29.05;12.20;;;;;;;1.52;66.63;94079.13;5073272;28;20233;-80
2021/01/14 09:25:34;;;;;;;9.70;6.60;;;;;;;1.58;62.42;94076.16;5073181;28;20198;-81
2021/01/14 09:28:07;;;;;;;14.68;7.60;;;;;;;1.37;64.41;94070.56;5054059;28;20448;-80
2021/01/14 09:30:34;;;;;;;12.80;8.90;;;;;;;1.42;66.54;94060.78;5037481;28;20202;-80
2021/01/14 09:33:01;;;;;;;11.65;9.48;;;;;;;1.44;67.99;94048.59;5072381;28;20448;-80
2021/01/14 09:35:27;;;;;;;17.77;10.35;;;;;;;1.57;68.39;94059.00;5073006;28;20198;-79
2021/01/14 09:37:54;;;;;;;17.50;10.60;;;;;;;1.61;66.38;94062.22;5053206;28;20221;-79
2021/01/14 09:40:21;;;;;;;21.50;12.05;;;;;;;1.57;66.04;94047.81;5052535;28;20258;-78
2021/01/14 09:42:49;;;;;;;18.43;10.80;;;;;;;1.84;66.89;94062.41;5017794;28;20201;-81
2021/01/14 09:45:17;;;;;;;26.47;12.20;;;;;;;2.08;65.51;94048.81;5052953;28;20495;-80
2021/01/14 09:47:48;;;;;;;24.67;12.37;;;;;;;2.17;63.97;94046.44;5017516;28;20429;-79
2021/01/14 09:50:15;;;;;;;20.57;11.27;;;;;;;2.33;64.04;94041.09;5052463;28;20475;-79
2021/01/14 09:52:42;;;;;;;15.40;9.47;;;;;;;2.41;61.83;94033.66;5018064;28;20479;-79
2021/01/14 09:55:11;;;;;;;15.50;9.30;;;;;;;2.56;60.96;94033.53;5052523;28;20503;-79
2021/01/14 09:57:43;;;;;;;14.10;8.87;;;;;;;2.54;60.00;94027.63;5034309;28;20460;-79
2021/01/14 10:00:14;;;;;;;10.93;7.70;;;;;;;2.61;60.54;94015.94;5052269;28;20488;-80
2021/01/14 10:02:43;;;;;;;15.53;8.23;;;;;;;2.77;60.06;94008.78;5017913;28;20446;-78
2021/01/14 10:05:13;;;;;;;13.40;8.70;;;;;;;3.00;58.98;94005.44;5052697;28;20545;-79
2021/01/14 10:07:46;;;;;;;14.63;9.13;;;;;;;3.06;57.94;94007.59;5052581;28;20451;-79
2021/01/14 10:10:12;;;;;;;11.53;7.10;;;;;;;2.99;57.45;94011.53;5052298;28;20845;-79
2021/01/14 10:12:39;;;;;;;11.40;8.27;;;;;;;2.89;56.36;94007.09;5052385;28;20776;-79
2021/01/14 10:15:09;;;;;;;23.23;8.97;;;;;;;3.08;57.05;94013.50;5052786;28;20445;-79
2021/01/14 10:17:37;;;;;;;11.40;6.93;;;;;;;3.14;56.25;94003.63;5052832;28;21619;-80
2021/01/14 10:20:06;;;;;;;13.47;7.97;;;;;;;3.19;57.19;93993.78;5052484;28;20489;-80
2021/01/14 10:22:34;;;;;;;14.20;8.00;;;;;;;3.21;55.82;93989.31;5052609;28;20485;-81
2021/01/14 10:25:08;;;;;;;13.03;8.20;;;;;;;3.19;56.29;93989.44;5052530;28;20481;-80
2021/01/14 10:27:35;;;;;;;9.47;6.67;;;;;;;3.21;57.39;93997.09;5052613;28;20469;-81
2021/01/14 10:30:17;;;;;;;9.63;7.60;;;;;;;3.20;56.12;94005.81;5033778;28;20456;-80
2021/01/14 10:32:44;;;;;;;13.40;9.07;;;;;;;3.14;56.72;94008.81;5052419;28;20448;-81
2021/01/14 10:35:24;;;;;;;15.07;8.87;;;;;;;3.21;56.73;94007.47;5017330;28;21194;-79
2021/01/14 10:38:08;;;;;;;9.60;8.40;;;;;;;3.11;56.54;94008.09;5071263;28;20450;-79
2021/01/14 10:40:37;;;;;;;12.20;9.00;;;;;;;3.18;57.30;94007.66;5072194;28;20484;-80
2021/01/14 10:43:05;;;;;;;17.53;10.93;;;;;;;3.24;57.95;94002.06;5072752;28;20444;-81
2021/01/14 10:45:34;;;;;;;20.20;11.87;;;;;;;3.40;58.54;94002.63;5073918;28;20822;-80
2021/01/14 10:48:09;;;;;;;15.93;11.20;;;;;;;3.43;58.00;93986.84;5075607;28;20444;-81
2021/01/14 10:50:43;;;;;;;18.13;11.73;;;;;;;3.42;58.45;93990.38;5075934;28;20494;-80
2021/01/14 10:53:10;;;;;;;20.90;11.87;;;;;;;3.15;59.04;93985.38;5075642;28;20448;-80
2021/01/14 10:55:37;;;;;;;29.60;17.30;;;;;;;3.08;59.55;93974.63;5075563;28;20828;-80
2021/01/14 10:58:04;;;;;;;24.10;12.57;;;;;;;2.95;59.79;93970.41;5075445;28;20448;-80
2021/01/14 11:00:36;;;;;;;20.30;12.97;;;;;;;2.89;59.69;93965.63;5075247;28;20535;-80
2021/01/14 11:03:04;;;;;;;24.93;14.13;;;;;;;2.86;59.67;93984.81;5075812;28;20443;-80
2021/01/14 11:05:46;;;;;;;28.97;12.93;;;;;;;2.95;59.26;93984.19;5075865;28;20588;-80
2021/01/14 11:08:14;;;;;;;23.27;11.87;;;;;;;2.93;59.35;93999.03;5075725;28;20449;-80
2021/01/14 11:10:41;;;;;;;21.83;13.20;;;;;;;2.97;58.83;94000.47;5075175;28;20533;-79
2021/01/14 11:13:09;;;;;;;24.37;12.93;;;;;;;2.98;59.66;93986.56;5075402;28;20456;-79
2021/01/14 11:15:35;;;;;;;33.90;15.07;;;;;;;2.96;60.26;93980.66;5075567;28;20459;-81
2021/01/14 11:18:04;;;;;;;27.07;15.13;;;;;;;2.93;59.09;94000.78;5075164;28;20452;-80
2021/01/14 11:20:31;;;;;;;32.60;16.87;;;;;;;2.92;60.47;93999.13;5075444;28;20488;-80
2021/01/14 11:22:59;;;;;;;24.87;15.63;;;;;;;2.82;60.91;93990.31;5075468;28;20482;-80
2021/01/14 11:25:26;;;;;;;19.70;12.77;;;;;;;2.78;60.14;93982.75;5075017;28;20449;-80
2021/01/14 11:27:53;;;;;;;23.40;12.53;;;;;;;2.87;60.28;93983.88;5075327;28;20578;-80
2021/01/14 11:30:20;;;;;;;24.57;14.90;;;;;;;2.93;61.57;93975.69;5075323;28;20463;-80
2021/01/14 11:32:47;;;;;;;25.87;14.27;;;;;;;3.00;60.64;93978.69;5039841;28;20460;-80
2021/01/14 11:35:15;;;;;;;36.67;16.63;;;;;;;3.06;59.89;93981.66;5074891;28;20459;-80
2021/01/14 11:37:42;;;;;;;29.87;16.90;;;;;;;3.15;60.37;93984.53;5056045;28;20449;-80
2021/01/14 11:40:11;;;;;;;23.70;15.40;;;;;;;3.23;59.62;93987.44;5054593;28;20481;-80
2021/01/14 11:42:37;;;;;;;37.37;16.27;;;;;;;3.05;59.38;93979.19;5055017;28;20449;-81